Time;durP1;ratioP1;P1;durP2;ratioP2;P2;SDS_P1;SDS_P2;PMS_P1;PMS_P2;Temp;Humidity;BMP_temperature;BMP_pressure;BME280_temperature;BME280_humidity;BME280_pressure;Samples;Min_cycle;Max_cycle;Signal;HPM_P1;HPM_P2
2023/05/02 00:01:32;;;;;;;8.35;3.97;;;;;;;5.72;70.15;148743.09;5102742;28;20035;-65
2023/05/02 00:03:58;;;;;;;8.63;4.07;;;;;;;5.72;70.07;148744.38;5102366;28;20040;-65
2023/05/02 00:06:23;;;;;;;8.35;4.30;;;;;;;5.67;69.90;148732.88;5085896;28;20055;-64
2023/05/02 00:08:49;;;;;;;9.75;4.28;;;;;;;5.65;70.16;148727.75;5093551;28;20028;-63
2023/05/02 00:11:15;;;;;;;10.98;4.43;;;;;;;5.63;70.52;148722.66;5102609;28;20352;-64
2023/05/02 00:13:42;;;;;;;11.02;5.30;;;;;;;5.64;70.10;148725.22;5100277;28;20149;-63
2023/05/02 00:16:08;;;;;;;10.13;4.72;;;;;;;5.63;70.20;148722.66;5063833;28;20024;-64
2023/05/02 00:18:34;;;;;;;11.38;5.38;;;;;;;5.62;70.44;148720.09;5081525;28;20081;-63
2023/05/02 00:20:59;;;;;;;9.23;4.43;;;;;;;5.58;70.52;148709.88;5094818;28;20032;-63
2023/05/02 00:23:25;;;;;;;7.43;4.38;;;;;;;5.53;70.10;148698.38;5093864;28;20032;-62
2023/05/02 00:25:51;;;;;;;10.68;4.72;;;;;;;5.45;70.45;148676.69;5085552;28;20211;-64
2023/05/02 00:28:17;;;;;;;9.35;3.67;;;;;;;5.44;70.46;148674.09;5102608;28;20271;-63
2023/05/02 00:30:45;;;;;;;6.95;4.07;;;;;;;5.47;70.63;148681.75;5083617;28;20024;-63
2023/05/02 00:33:13;;;;;;;7.50;3.90;;;;;;;5.49;69.74;148686.91;5100595;28;20027;-64
2023/05/02 00:35:39;;;;;;;5.10;3.45;;;;;;;5.41;70.42;148666.47;5102276;28;20051;-64
2023/05/02 00:38:05;;;;;;;8.55;3.35;;;;;;;5.36;70.54;148654.97;5097487;28;20044;-64
2023/05/02 00:40:30;;;;;;;6.95;3.50;;;;;;;5.40;71.48;148663.88;5082116;28;20025;-64
2023/05/02 00:42:56;;;;;;;6.00;2.88;;;;;;;5.43;70.78;148671.53;5099966;28;20051;-66
2023/05/02 00:45:22;;;;;;;4.97;3.10;;;;;;;5.42;70.98;148669.03;5102284;28;20084;-63
2023/05/02 00:47:49;;;;;;;4.15;3.00;;;;;;;5.35;70.61;148652.41;5088487;28;20244;-64
2023/05/02 00:50:16;;;;;;;5.78;3.00;;;;;;;5.44;70.95;148675.38;5100294;28;20134;-65
2023/05/02 00:52:42;;;;;;;4.40;2.80;;;;;;;5.30;71.04;148640.91;5087981;28;20027;-65
2023/05/02 00:55:08;;;;;;;5.60;3.00;;;;;;;5.36;70.87;148656.22;5106455;28;20032;-65
2023/05/02 00:57:33;;;;;;;8.48;2.85;;;;;;;5.34;70.32;148651.16;5088959;28;20062;-64
2023/05/02 00:59:59;;;;;;;3.95;2.90;;;;;;;5.32;70.97;148644.75;5080585;28;20032;-63
2023/05/02 01:02:36;;;;;;;3.25;2.47;;;;;;;5.36;71.86;148654.97;5098517;28;20092;-63
2023/05/02 01:05:14;;;;;;;3.22;2.70;;;;;;;5.26;71.18;148630.69;5090308;28;20070;-63
2023/05/02 01:07:51;;;;;;;5.25;2.50;;;;;;;5.35;70.80;148653.66;5105124;28;20170;-62
2023/05/02 01:10:46;;;;;;;3.63;2.60;;;;;;;5.28;71.44;148634.53;5068008;28;20058;-64
2023/05/02 01:13:33;;;;;;;2.75;2.40;;;;;;;5.25;71.51;148626.88;5068135;28;20096;-65
2023/05/02 01:16:02;;;;;;;5.22;2.60;;;;;;;5.30;72.12;148639.63;5067999;28;20028;-63
2023/05/02 01:18:34;;;;;;;4.07;2.58;;;;;;;5.21;71.39;148616.66;5101885;28;20038;-64
2023/05/02 01:21:03;;;;;;;5.30;2.65;;;;;;;5.12;71.69;148596.22;5105994;28;20031;-63
2023/05/02 01:23:53;;;;;;;4.05;2.65;;;;;;;5.21;71.44;148616.66;5105818;28;20099;-65
2023/05/02 01:26:39;;;;;;;4.90;2.05;;;;;;;5.09;71.12;148587.25;5099047;28;20039;-64
2023/05/02 01:29:08;;;;;;;3.50;2.00;;;;;;;5.09;72.14;148587.25;5072359;28;20040;-65
2023/05/02 01:31:46;;;;;;;4.85;2.55;;;;;;;5.10;71.89;148591.13;5105377;28;20020;-64
2023/05/02 01:34:12;;;;;;;5.00;2.40;;;;;;;5.10;71.77;148589.81;5105533;28;20347;-64
2023/05/02 01:36:42;;;;;;;2.72;2.33;;;;;;;5.05;72.38;148578.34;5087834;28;20091;-63
2023/05/02 01:39:17;;;;;;;4.38;2.47;;;;;;;4.94;71.66;148550.25;5098627;28;20032;-65
2023/05/02 01:41:45;;;;;;;3.78;2.50;;;;;;;5.00;72.41;148566.84;5105207;28;20024;-63
2023/05/02 01:44:13;;;;;;;4.65;2.67;;;;;;;4.98;73.81;148561.72;5100210;28;20231;-64
2023/05/02 01:46:42;;;;;;;4.45;2.90;;;;;;;4.97;73.45;148557.91;5103751;28;20027;-64
2023/05/02 01:49:09;;;;;;;4.43;3.00;;;;;;;4.99;73.31;148564.28;5105360;28;20529;-64
2023/05/02 01:51:37;;;;;;;2.92;2.00;;;;;;;4.95;73.22;148554.06;5087841;28;20096;-62
2023/05/02 01:54:06;;;;;;;5.30;2.60;;;;;;;4.97;73.56;148557.91;5097150;28;20043;-64
2023/05/02 01:56:34;;;;;;;3.13;2.55;;;;;;;4.88;73.82;148536.19;5105347;28;20024;-64
2023/05/02 01:59:05;;;;;;;4.00;2.72;;;;;;;4.92;74.23;148545.16;5101656;28;20256;-63
2023/05/02 02:01:32;;;;;;;5.63;2.78;;;;;;;4.90;74.06;148541.28;5084890;28;20032;-63
2023/05/02 02:04:00;;;;;;;4.20;2.58;;;;;;;4.88;74.74;148536.19;5084704;28;20066;-63
2023/05/02 02:06:26;;;;;;;7.97;2.88;;;;;;;4.88;75.20;148534.94;5100267;28;20107;-63
2023/05/02 02:08:53;;;;;;;7.72;2.88;;;;;;;4.80;74.63;148515.75;5094149;28;20404;-64
2023/05/02 02:11:26;;;;;;;5.13;2.88;;;;;;;4.84;74.13;148525.97;5090860;28;20040;-63
2023/05/02 02:14:02;;;;;;;4.63;2.70;;;;;;;4.76;74.43;148506.84;5102044;28;20035;-64
2023/05/02 02:16:52;;;;;;;5.07;3.28;;;;;;;4.88;74.75;148536.19;5082607;28;20024;-64
2023/05/02 02:19:18;;;;;;;4.38;2.58;;;;;;;4.83;74.80;148523.41;5104614;28;20030;-64
2023/05/02 02:21:46;;;;;;;5.32;3.13;;;;;;;4.82;75.41;148520.91;5104106;28;20023;-62
2023/05/02 02:24:15;;;;;;;4.38;2.80;;;;;;;4.80;75.60;148515.75;5090952;28;20036;-63
2023/05/02 02:26:41;;;;;;;3.25;2.95;;;;;;;4.79;75.45;148514.50;5093315;28;20035;-63
2023/05/02 02:29:07;;;;;;;3.70;2.70;;;;;;;4.80;75.74;148515.75;5100324;28;20107;-63
2023/05/02 02:31:34;;;;;;;5.55;3.03;;;;;;;4.72;76.67;148495.34;5088676;28;20031;-63
2023/05/02 02:34:00;;;;;;;4.93;3.20;;;;;;;4.76;76.71;148505.53;5104590;28;20031;-64
2023/05/02 02:36:35;;;;;;;3.95;3.40;;;;;;;4.78;76.23;148510.69;5088981;28;20036;-63
2023/05/02 02:39:15;;;;;;;6.80;3.33;;;;;;;4.98;76.14;148561.72;5096024;28;20042;-64
2023/05/02 02:41:53;;;;;;;4.45;3.60;;;;;;;5.13;75.11;148598.78;5102450;28;20024;-64
2023/05/02 02:44:24;;;;;;;6.82;3.70;;;;;;;5.13;75.44;148598.78;5098508;28;20083;-64
2023/05/02 02:47:04;;;;;;;5.78;3.88;;;;;;;5.13;75.78;148597.47;5085632;28;20024;-63
2023/05/02 02:49:54;;;;;;;6.38;3.40;;;;;;;5.70;73.72;148739.22;5086150;28;20032;-64
2023/05/02 02:52:39;;;;;;;4.10;3.25;;;;;;;5.77;73.57;148757.16;5084218;28;20024;-62
2023/05/02 02:55:29;;;;;;;6.05;3.58;;;;;;;6.17;71.80;148855.56;5083936;28;20035;-62
2023/05/02 02:58:16;;;;;;;3.53;3.15;;;;;;;6.73;70.65;148996.19;5103089;28;20091;-64
2023/05/02 03:00:43;;;;;;;6.90;3.97;;;;;;;6.92;69.97;149042.22;5085967;28;20078;-64
2023/05/02 03:03:13;;;;;;;8.95;3.60;;;;;;;7.14;69.89;149095.91;5096369;28;20102;-64
2023/05/02 03:05:38;;;;;;;6.88;3.60;;;;;;;7.21;68.98;149113.81;5094958;28;20105;-63
2023/05/02 03:08:04;;;;;;;4.68;3.38;;;;;;;7.26;68.28;149127.91;5087066;28;20032;-64
2023/05/02 03:10:30;;;;;;;3.92;3.40;;;;;;;7.39;67.62;149159.88;5103582;28;20024;-64
2023/05/02 03:12:55;;;;;;;4.65;3.28;;;;;;;7.40;68.19;149161.19;5084629;28;20067;-64
2023/05/02 03:15:35;;;;;;;6.57;3.78;;;;;;;7.16;67.09;149101.06;5097842;28;20316;-63
2023/05/02 03:18:01;;;;;;;7.25;4.45;;;;;;;7.09;68.54;149085.69;5092244;28;20340;-63
2023/05/02 03:20:27;;;;;;;8.48;5.18;;;;;;;7.07;68.51;149080.59;5089783;28;20020;-63
2023/05/02 03:22:52;;;;;;;5.63;3.30;;;;;;;7.07;66.73;149079.31;5103589;28;20087;-63
2023/05/02 03:25:18;;;;;;;6.53;3.42;;;;;;;7.08;68.53;149083.16;5103602;28;20453;-63
2023/05/02 03:27:43;;;;;;;3.83;2.97;;;;;;;7.05;67.26;149074.19;5085914;28;20028;-64
2023/05/02 03:30:09;;;;;;;9.77;3.70;;;;;;;7.18;68.61;149107.47;5064713;28;20104;-64
2023/05/02 03:32:35;;;;;;;5.28;3.58;;;;;;;7.21;65.98;149115.13;5095594;28;20116;-63
2023/05/02 03:35:00;;;;;;;5.00;2.97;;;;;;;7.21;65.59;149115.13;5100524;28;20056;-64
2023/05/02 03:37:26;;;;;;;5.45;3.30;;;;;;;7.34;64.48;149147.09;5082944;28;20024;-63
2023/05/02 03:39:51;;;;;;;4.97;3.20;;;;;;;7.39;64.52;149159.88;5101342;28;20206;-64
2023/05/02 03:42:17;;;;;;;4.07;3.58;;;;;;;7.45;66.59;149172.69;5101925;28;20028;-64
2023/05/02 03:44:43;;;;;;;5.45;3.20;;;;;;;7.45;66.18;149172.69;5097172;28;20019;-63
2023/05/02 03:47:08;;;;;;;3.50;3.05;;;;;;;7.58;64.54;149207.22;5102973;28;20107;-64
2023/05/02 03:49:34;;;;;;;4.80;3.10;;;;;;;7.62;64.18;149216.16;5103062;28;20024;-63
2023/05/02 03:52:00;;;;;;;4.20;2.97;;;;;;;7.74;64.49;149245.63;5083517;28;20036;-64
2023/05/02 03:54:26;;;;;;;4.38;2.75;;;;;;;7.94;63.82;149296.78;5097334;28;20024;-64
2023/05/02 03:56:54;;;;;;;6.38;3.05;;;;;;;8.02;62.18;149315.97;5093148;28;20024;-64
2023/05/02 03:59:20;;;;;;;4.63;3.03;;;;;;;7.99;64.01;149308.31;5088178;28;20031;-64
2023/05/02 04:01:51;;;;;;;6.25;3.17;;;;;;;7.94;63.12;149296.78;5102104;28;20036;-66
2023/05/02 04:04:16;;;;;;;5.40;3.63;;;;;;;7.86;63.92;149275.03;5082551;28;20048;-65
2023/05/02 04:06:42;;;;;;;5.82;3.25;;;;;;;7.87;62.40;149277.63;5089970;28;20222;-64
2023/05/02 04:09:07;;;;;;;4.72;3.00;;;;;;;7.81;62.18;149262.22;5089890;28;20032;-63
2023/05/02 04:11:33;;;;;;;7.22;4.18;;;;;;;7.87;63.18;149277.63;5082162;28;20060;-64
2023/05/02 04:13:59;;;;;;;5.43;3.33;;;;;;;7.84;62.53;149271.22;5084665;28;20095;-65
2023/05/02 04:16:24;;;;;;;12.32;3.92;;;;;;;7.69;62.44;149234.06;5102900;28;20060;-64
2023/05/02 04:18:50;;;;;;;4.43;3.33;;;;;;;7.85;63.03;149272.47;5084568;28;20024;-64
2023/05/02 04:21:16;;;;;;;6.00;2.88;;;;;;;7.94;62.27;149296.78;5094550;28;20032;-63
2023/05/02 04:23:41;;;;;;;6.72;3.30;;;;;;;7.90;62.34;149285.28;5102407;28;20024;-63
2023/05/02 04:26:07;;;;;;;5.35;3.15;;;;;;;7.99;63.59;149307.03;5099106;28;20032;-62
2023/05/02 04:28:34;;;;;;;7.97;3.53;;;;;;;8.06;62.47;149326.22;5081943;28;20040;-63
2023/05/02 04:31:00;;;;;;;6.15;3.97;;;;;;;8.16;62.06;149349.28;5101168;28;20349;-63
2023/05/02 04:33:25;;;;;;;5.80;3.00;;;;;;;8.30;60.93;149386.38;5096265;28;20031;-62
2023/05/02 04:35:51;;;;;;;4.50;2.60;;;;;;;8.33;59.63;149392.78;5092995;28;20027;-62
2023/05/02 04:38:17;;;;;;;4.18;2.47;;;;;;;8.46;59.80;149426.16;5094419;28;20493;-63
2023/05/02 04:40:43;;;;;;;3.90;2.15;;;;;;;8.53;58.51;149441.50;5084079;28;20039;-63
2023/05/02 04:43:09;;;;;;;3.90;2.42;;;;;;;8.60;58.65;149460.69;5089576;28;20027;-62
2023/05/02 04:45:35;;;;;;;3.97;2.47;;;;;;;8.81;56.89;149513.19;5101737;28;20024;-63
2023/05/02 04:48:01;;;;;;;4.53;2.88;;;;;;;9.09;57.52;149581.06;5097319;28;20027;-64
2023/05/02 04:50:27;;;;;;;2.35;2.13;;;;;;;9.73;57.11;149741.22;5095899;28;20025;-62
2023/05/02 04:52:53;;;;;;;5.13;2.50;;;;;;;10.36;54.80;149897.66;5082390;28;20032;-64
2023/05/02 04:55:18;;;;;;;3.83;2.50;;;;;;;10.91;54.09;150034.91;5084200;28;20067;-64
2023/05/02 04:57:45;;;;;;;8.30;2.63;;;;;;;11.34;52.34;150141.41;5085263;28;20322;-66
2023/05/02 05:00:11;;;;;;;5.10;2.60;;;;;;;11.80;51.13;150256.94;5064005;28;20313;-68
2023/05/02 05:02:38;;;;;;;7.72;2.85;;;;;;;12.02;49.74;150310.88;5088837;28;20036;-65
2023/05/02 05:05:04;;;;;;;4.90;2.72;;;;;;;12.68;50.33;150476.53;5092290;28;20055;-66
2023/05/02 05:07:30;;;;;;;5.97;3.20;;;;;;;13.44;46.85;150665.50;5101402;28;20035;-66
2023/05/02 05:09:55;;;;;;;6.75;2.42;;;;;;;13.83;44.71;150763.16;5101792;28;20043;-66
2023/05/02 05:12:22;;;;;;;6.45;2.78;;;;;;;14.41;44.30;150907.16;5101736;28;20047;-65
2023/05/02 05:14:49;;;;;;;5.55;2.50;;;;;;;14.25;45.24;150868.59;5101719;28;20036;-65
2023/05/02 05:17:15;;;;;;;5.93;2.80;;;;;;;13.82;45.50;150760.56;5099619;28;20094;-65
2023/05/02 05:19:40;;;;;;;5.95;2.90;;;;;;;13.80;45.54;150756.72;5101674;28;20377;-66
2023/05/02 05:22:07;;;;;;;7.28;3.20;;;;;;;14.06;43.45;150821.00;5101998;28;20024;-66
2023/05/02 05:24:32;;;;;;;5.97;3.05;;;;;;;14.52;44.73;150935.44;5087470;28;20024;-65
2023/05/02 05:26:58;;;;;;;5.60;3.03;;;;;;;14.50;44.09;150930.31;5091630;28;20044;-65
2023/05/02 05:29:24;;;;;;;8.98;3.47;;;;;;;14.31;42.80;150882.75;5096967;28;20289;-66
2023/05/02 05:31:49;;;;;;;5.78;3.03;;;;;;;14.21;43.01;150857.00;5089225;28;20038;-66
2023/05/02 05:34:15;;;;;;;9.27;3.88;;;;;;;14.07;42.55;150823.59;5105909;28;20280;-66
2023/05/02 05:36:41;;;;;;;9.35;4.28;;;;;;;14.01;44.03;150808.16;5089859;28;20032;-65
2023/05/02 05:39:06;;;;;;;10.18;3.83;;;;;;;13.95;42.58;150792.72;5096318;28;20044;-66
2023/05/02 05:41:33;;;;;;;6.78;3.67;;;;;;;14.03;43.02;150812.03;5105247;28;20016;-66
2023/05/02 05:43:58;;;;;;;7.28;3.80;;;;;;;13.90;44.68;150779.88;5103955;28;20081;-66
2023/05/02 05:46:24;;;;;;;9.75;3.30;;;;;;;13.67;44.00;150722.00;5102020;28;20028;-64
2023/05/02 05:48:49;;;;;;;6.22;2.75;;;;;;;13.53;42.34;150688.59;5105086;28;20036;-65
2023/05/02 05:51:15;;;;;;;5.32;2.85;;;;;;;13.54;43.13;150691.19;5093043;28;20044;-66
2023/05/02 05:53:40;;;;;;;6.93;3.55;;;;;;;13.56;43.21;150695.03;5092140;28;20020;-66
2023/05/02 05:56:10;;;;;;;5.70;2.90;;;;;;;13.16;42.56;150596.03;5105265;28;20020;-66
2023/05/02 05:58:36;;;;;;;5.70;3.10;;;;;;;13.29;42.70;150629.41;5104916;28;20153;-65
2023/05/02 06:01:02;;;;;;;9.32;3.13;;;;;;;13.28;41.96;150626.88;5086680;28;20032;-65
2023/05/02 06:03:27;;;;;;;6.93;2.78;;;;;;;13.38;42.30;150650.03;5084395;28;20038;-65
2023/05/02 06:05:53;;;;;;;4.22;2.38;;;;;;;13.46;40.15;150670.59;5093449;28;20048;-68
2023/05/02 06:08:20;;;;;;;3.35;2.05;;;;;;;13.50;39.64;150680.91;5082910;28;20032;-66
2023/05/02 06:10:46;;;;;;;5.25;2.03;;;;;;;13.19;40.46;150602.44;5066678;28;20041;-68
2023/05/02 06:13:12;;;;;;;3.03;1.77;;;;;;;13.19;40.27;150603.72;5104195;28;20097;-67
2023/05/02 06:15:37;;;;;;;3.20;1.63;;;;;;;13.24;39.32;150615.28;5089402;28;20434;-67
2023/05/02 06:18:03;;;;;;;3.30;1.70;;;;;;;13.44;40.93;150665.50;5094839;28;20028;-67
2023/05/02 06:20:28;;;;;;;2.50;1.77;;;;;;;13.27;39.29;150623.03;5104301;28;20247;-67
2023/05/02 06:22:54;;;;;;;3.55;2.05;;;;;;;13.55;39.77;150693.75;5104240;28;20031;-67
2023/05/02 06:25:20;;;;;;;3.72;1.15;;;;;;;13.64;39.95;150716.88;5084666;28;20028;-66
2023/05/02 06:27:45;;;;;;;2.83;1.63;;;;;;;13.44;36.43;150665.50;5084304;28;20028;-66
2023/05/02 06:30:11;;;;;;;3.08;1.50;;;;;;;13.55;37.36;150693.75;5091689;28;20028;-65
2023/05/02 06:32:37;;;;;;;2.65;1.60;;;;;;;13.80;37.69;150755.44;5091238;28;20200;-65
2023/05/02 06:35:03;;;;;;;2.28;1.60;;;;;;;13.67;36.87;150723.31;5084289;28;20056;-67
2023/05/02 06:37:35;;;;;;;3.70;1.38;;;;;;;13.20;38.39;150605.03;5084208;28;20135;-67
2023/05/02 06:40:01;;;;;;;4.55;1.67;;;;;;;13.84;39.19;150765.75;5102243;28;20034;-66
2023/05/02 06:42:28;;;;;;;2.60;2.00;;;;;;;13.67;39.00;150723.31;5104627;28;20074;-67
2023/05/02 06:44:55;;;;;;;3.75;2.05;;;;;;;13.77;37.25;150747.75;5103441;28;20040;-65
2023/05/02 06:47:23;;;;;;;6.07;1.70;;;;;;;13.95;38.44;150794.03;5104324;28;20039;-65
2023/05/02 06:49:52;;;;;;;5.85;1.67;;;;;;;14.03;38.50;150812.03;5104096;28;20095;-64
2023/05/02 06:52:18;;;;;;;1.50;1.40;;;;;;;13.90;37.21;150781.16;5083909;28;20035;-63
2023/05/02 06:54:43;;;;;;;2.45;1.70;;;;;;;13.97;36.70;150799.16;5099324;28;20024;-66
2023/05/02 06:57:09;;;;;;;3.97;1.38;;;;;;;13.82;37.47;150760.56;5093239;28;20069;-63
2023/05/02 06:59:35;;;;;;;2.25;1.33;;;;;;;13.88;36.06;150776.03;5089473;28;20350;-66
2023/05/02 07:02:01;;;;;;;3.47;1.40;;;;;;;13.64;35.49;150715.63;5103117;28;20087;-66
2023/05/02 07:04:26;;;;;;;1.50;1.23;;;;;;;13.66;35.38;150720.72;5083690;28;20044;-66
2023/05/02 07:06:52;;;;;;;3.03;1.23;;;;;;;13.88;35.34;150776.03;5100223;28;20055;-66
2023/05/02 07:09:18;;;;;;;2.92;1.25;;;;;;;13.78;35.00;150750.28;5092355;28;20135;-66
2023/05/02 07:11:43;;;;;;;2.63;1.42;;;;;;;13.80;35.95;150755.44;5072311;28;20040;-65
2023/05/02 07:14:09;;;;;;;5.65;3.85;;;;;;;13.92;35.62;150785.00;5101627;28;20043;-66
2023/05/02 07:16:34;;;;;;;6.75;1.95;;;;;;;14.07;35.20;150823.59;5083392;28;20036;-66
2023/05/02 07:19:03;;;;;;;4.82;1.73;;;;;;;14.28;36.82;150875.00;5100903;28;20024;-66
2023/05/02 07:21:29;;;;;;;4.85;1.50;;;;;;;14.28;36.08;150876.31;5103408;28;20066;-66
2023/05/02 07:23:56;;;;;;;2.95;1.40;;;;;;;14.13;36.90;150837.72;5103695;28;20466;-67
2023/05/02 07:26:22;;;;;;;4.25;1.30;;;;;;;13.85;34.05;150768.28;5099932;28;20028;-66
2023/05/02 07:28:48;;;;;;;2.35;1.67;;;;;;;13.48;34.80;150675.72;5083229;28;20024;-66
2023/05/02 07:31:13;;;;;;;3.03;1.50;;;;;;;13.74;36.59;150741.31;5102607;28;20024;-67
2023/05/02 07:33:39;;;;;;;2.38;1.83;;;;;;;13.48;35.69;150675.72;5103395;28;20027;-65
2023/05/02 07:36:05;;;;;;;2.97;1.60;;;;;;;13.72;35.92;150734.88;5093351;28;20020;-66
2023/05/02 07:38:30;;;;;;;1.83;1.42;;;;;;;13.38;35.74;150651.34;5101031;28;20049;-65
2023/05/02 07:41:00;;;;;;;3.95;1.73;;;;;;;13.64;36.05;150715.63;5084704;28;20019;-66
2023/05/02 07:43:26;;;;;;;2.88;1.75;;;;;;;13.52;37.52;150684.75;5103226;28;20102;-66
2023/05/02 07:45:52;;;;;;;4.93;1.60;;;;;;;13.58;37.37;150701.47;5081207;28;20270;-66
2023/05/02 07:48:19;;;;;;;3.25;1.52;;;;;;;13.52;35.84;150684.75;5091767;28;20024;-66
2023/05/02 07:50:45;;;;;;;7.18;2.10;;;;;;;13.68;38.70;150725.91;5064906;28;20223;-65
2023/05/02 07:53:10;;;;;;;2.95;1.60;;;;;;;13.70;37.58;150729.75;5092374;28;20067;-66
2023/05/02 07:55:36;;;;;;;3.28;1.90;;;;;;;13.56;37.77;150696.31;5064435;28;20028;-67
2023/05/02 07:58:02;;;;;;;4.68;1.70;;;;;;;13.59;36.28;150704.00;5082358;28;20028;-66
2023/05/02 08:00:29;;;;;;;2.38;1.50;;;;;;;13.55;36.31;150692.44;5095075;28;20087;-67
2023/05/02 08:02:54;;;;;;;2.97;1.83;;;;;;;13.57;35.89;150698.88;5094880;28;20340;-66
2023/05/02 08:05:20;;;;;;;4.72;1.88;;;;;;;13.64;37.84;150716.88;5092675;28;20056;-67
2023/05/02 08:07:46;;;;;;;3.47;1.73;;;;;;;13.64;34.92;150716.88;5071397;28;20043;-67
2023/05/02 08:10:11;;;;;;;4.50;1.60;;;;;;;13.82;35.53;150760.56;5084602;28;20328;-66
2023/05/02 08:12:39;;;;;;;5.07;2.13;;;;;;;13.91;36.32;150783.72;5088684;28;20082;-67
2023/05/02 08:15:07;;;;;;;3.42;1.67;;;;;;;13.91;35.86;150783.72;5091392;28;20028;-66
2023/05/02 08:17:32;;;;;;;3.22;1.83;;;;;;;13.79;34.23;150752.88;5097694;28;20300;-64
2023/05/02 08:19:58;;;;;;;4.78;1.67;;;;;;;13.81;35.32;150758.03;5101899;28;20023;-68
2023/05/02 08:22:24;;;;;;;3.35;1.98;;;;;;;13.98;37.85;150801.72;5082231;28;20024;-68
2023/05/02 08:24:49;;;;;;;1.65;1.55;;;;;;;13.80;34.62;150756.72;5090475;28;20040;-66
2023/05/02 08:27:15;;;;;;;4.25;1.90;;;;;;;14.00;37.84;150804.31;5088097;28;20296;-65
2023/05/02 08:29:40;;;;;;;3.72;1.70;;;;;;;14.18;35.98;150849.28;5087560;28;20024;-67
2023/05/02 08:32:06;;;;;;;6.65;1.85;;;;;;;14.21;35.42;150857.00;5100621;28;20027;-68
2023/05/02 08:34:32;;;;;;;2.50;1.70;;;;;;;14.24;35.36;150866.03;5082314;28;20020;-68
2023/05/02 08:36:58;;;;;;;3.28;1.70;;;;;;;14.21;33.28;150858.31;5098708;28;20032;-68
2023/05/02 08:39:24;;;;;;;2.72;1.65;;;;;;;14.10;34.44;150831.28;5090792;28;20153;-68
2023/05/02 08:41:49;;;;;;;5.63;1.65;;;;;;;14.35;33.19;150891.72;5090204;28;20062;-66
2023/05/02 08:44:16;;;;;;;6.55;2.15;;;;;;;14.35;33.07;150891.72;5102372;28;20051;-66
2023/05/02 08:46:42;;;;;;;2.53;1.70;;;;;;;14.57;33.66;150948.34;5102134;28;20043;-67
2023/05/02 08:49:14;;;;;;;3.45;1.63;;;;;;;14.50;33.06;150930.31;5102355;28;20533;-67
2023/05/02 08:51:42;;;;;;;4.50;2.13;;;;;;;14.82;33.93;151010.09;5088235;28;20067;-66
2023/05/02 08:54:09;;;;;;;4.57;1.83;;;;;;;14.94;34.70;151041.00;5092036;28;20042;-67
2023/05/02 08:56:34;;;;;;;3.92;2.05;;;;;;;15.04;32.96;151065.47;5100824;28;20027;-68
2023/05/02 08:59:00;;;;;;;5.82;1.90;;;;;;;15.10;32.83;151079.63;5102259;28;20024;-68
2023/05/02 09:01:29;;;;;;;3.63;1.88;;;;;;;14.98;33.87;151051.31;5082519;28;20091;-68
2023/05/02 09:03:57;;;;;;;3.58;1.75;;;;;;;15.23;32.71;151111.78;5081752;28;20325;-66
2023/05/02 09:06:23;;;;;;;4.50;1.60;;;;;;;14.75;31.71;150992.09;5081579;28;20032;-67
2023/05/02 09:08:51;;;;;;;4.53;1.75;;;;;;;15.00;32.99;151056.44;5091930;28;20031;-68
2023/05/02 09:11:18;;;;;;;2.53;1.55;;;;;;;14.91;31.66;151033.28;5103291;28;20210;-68
2023/05/02 09:13:47;;;;;;;3.33;1.35;;;;;;;14.19;30.99;150853.16;5085118;28;20044;-67
2023/05/02 09:16:24;;;;;;;1.75;1.40;;;;;;;14.59;31.97;150953.50;5103744;28;20027;-67
2023/05/02 09:18:57;;;;;;;2.40;1.50;;;;;;;14.89;33.20;151026.84;5090437;28;20074;-67
2023/05/02 09:21:42;;;;;;;7.75;1.70;;;;;;;14.94;32.09;151041.00;5096859;28;20070;-67
2023/05/02 09:24:16;;;;;;;2.47;1.40;;;;;;;14.89;31.72;151028.13;5106314;28;20193;-67
2023/05/02 09:26:43;;;;;;;2.40;1.20;;;;;;;14.93;31.80;151037.16;5100141;28;20292;-66
2023/05/02 09:29:08;;;;;;;1.67;1.40;;;;;;;14.91;33.74;151033.28;5086096;28;20032;-67
2023/05/02 09:31:40;;;;;;;3.70;1.67;;;;;;;14.78;32.25;150999.84;5105679;28;20254;-66
2023/05/02 09:34:11;;;;;;;4.70;1.77;;;;;;;15.03;32.82;151062.88;5088595;28;20059;-67
2023/05/02 09:36:52;;;;;;;3.90;1.65;;;;;;;14.98;31.22;151051.31;5098223;28;20027;-66
2023/05/02 09:39:21;;;;;;;4.03;1.77;;;;;;;14.66;30.91;150971.56;5105551;28;20043;-66
2023/05/02 09:41:47;;;;;;;2.67;1.55;;;;;;;14.98;32.75;151050.03;5105286;28;20142;-66
2023/05/02 09:44:17;;;;;;;2.22;1.80;;;;;;;14.97;34.72;151047.44;5104293;28;20081;-66
2023/05/02 09:46:47;;;;;;;1.48;1.38;;;;;;;15.19;32.57;151102.75;5085443;28;20339;-66
2023/05/02 09:49:13;;;;;;;2.45;1.60;;;;;;;15.07;32.77;151071.91;5103107;28;20031;-69
2023/05/02 09:51:39;;;;;;;2.03;1.48;;;;;;;15.21;33.11;151106.66;5092010;28;20024;-68
2023/05/02 09:54:05;;;;;;;1.65;1.55;;;;;;;15.21;33.36;151107.94;5093670;28;20350;-67
2023/05/02 09:56:31;;;;;;;3.65;1.85;;;;;;;15.03;32.87;151062.88;5101684;28;20024;-67
2023/05/02 09:59:14;;;;;;;3.05;1.60;;;;;;;15.27;31.99;151122.09;5084903;28;20046;-68
2023/05/02 10:01:41;;;;;;;2.95;1.60;;;;;;;15.32;32.37;151136.25;5085102;28;20055;-67
2023/05/02 10:04:15;;;;;;;3.83;1.80;;;;;;;15.30;34.09;151129.78;5094477;28;20351;-67
2023/05/02 10:06:44;;;;;;;2.33;1.85;;;;;;;15.27;33.29;151122.09;5102095;28;20028;-70
2023/05/02 10:09:11;;;;;;;3.20;1.80;;;;;;;15.13;32.17;151087.31;5087529;28;20043;-67
2023/05/02 10:11:43;;;;;;;1.60;1.50;;;;;;;14.92;30.97;151035.88;5100611;28;20047;-65
2023/05/02 10:14:09;;;;;;;;;;;;;;;15.13;32.43;151087.31;5092405;28;20025;-66
2023/05/02 10:16:38;;;;;;;2.83;1.60;;;;;;;15.26;31.89;151119.50;5089716;28;19904;-66
2023/05/02 10:19:09;;;;;;;3.03;1.75;;;;;;;15.23;31.68;151113.06;5099376;28;20040;-66
2023/05/02 10:21:35;;;;;;;2.83;1.90;;;;;;;15.27;32.03;151123.34;5104768;28;20028;-65
2023/05/02 10:24:04;;;;;;;4.22;1.70;;;;;;;15.03;31.23;151062.88;5104776;28;20056;-67
2023/05/02 10:26:31;;;;;;;4.10;1.65;;;;;;;14.67;30.81;150972.81;5101338;28;20039;-66
2023/05/02 10:28:56;;;;;;;2.50;2.05;;;;;;;14.79;33.15;151002.41;5084277;28;20051;-66
2023/05/02 10:31:23;;;;;;;2.20;1.60;;;;;;;14.99;33.19;151052.56;5103292;28;20027;-67
2023/05/02 10:33:51;;;;;;;3.38;1.80;;;;;;;15.00;31.86;151056.44;5104424;28;20032;-68
2023/05/02 10:36:21;;;;;;;2.83;1.40;;;;;;;15.19;33.65;151104.06;5076962;28;20087;-69
2023/05/02 10:38:47;;;;;;;2.78;1.50;;;;;;;15.13;30.99;151087.31;5089524;28;20036;-68
2023/05/02 10:41:17;;;;;;;2.58;1.70;;;;;;;15.14;30.94;151089.91;5104286;28;20370;-68
2023/05/02 10:43:48;;;;;;;4.93;1.60;;;;;;;15.21;32.22;151107.94;5103512;28;20055;-68
2023/05/02 10:46:48;;;;;;;1.30;1.20;;;;;;;15.09;31.01;151077.03;5101544;28;20062;-67
2023/05/02 10:49:14;;;;;;;2.83;1.58;;;;;;;15.09;32.95;151077.03;5002182;28;20134;-70
2023/05/02 10:51:41;;;;;;;2.83;1.60;;;;;;;15.20;33.42;151105.34;5042526;28;20033;-69
2023/05/02 10:54:16;;;;;;;1.95;1.55;;;;;;;15.23;33.44;151113.06;5065846;28;20388;-68
2023/05/02 10:57:05;;;;;;;3.67;1.50;;;;;;;15.22;30.45;151110.50;5096338;28;20016;-68
2023/05/02 10:59:33;;;;;;;3.92;2.00;;;;;;;15.21;30.42;151107.94;5100797;28;20050;-69
2023/05/02 11:02:00;;;;;;;3.72;1.73;;;;;;;15.06;30.18;151070.59;5049257;28;20120;-69
2023/05/02 11:04:58;;;;;;;4.32;1.88;;;;;;;15.07;30.93;151071.91;5102340;28;20039;-68
2023/05/02 11:07:24;;;;;;;1.85;1.55;;;;;;;14.83;30.18;151013.97;5084965;28;20041;-68
2023/05/02 11:09:49;;;;;;;2.35;1.70;;;;;;;14.57;29.88;150948.34;5096832;28;20349;-69
2023/05/02 11:12:48;;;;;;;3.38;1.80;;;;;;;14.62;30.70;150961.25;5094589;28;20020;-69
2023/05/02 11:15:34;;;;;;;2.78;1.80;;;;;;;14.75;30.57;150993.41;5074181;28;20321;-70
2023/05/02 11:18:07;;;;;;;2.38;1.80;;;;;;;14.98;34.07;151051.31;5103487;28;20083;-72
2023/05/02 11:20:41;;;;;;;3.00;1.63;;;;;;;15.14;32.14;151089.91;5103234;28;20020;-70
2023/05/02 11:23:12;;;;;;;2.38;1.83;;;;;;;14.84;30.46;151016.56;5103354;28;20235;-69
2023/05/02 11:25:41;;;;;;;2.13;1.58;;;;;;;15.06;31.41;151070.59;5083126;28;20028;-68
2023/05/02 11:28:27;;;;;;;2.30;1.77;;;;;;;15.09;30.67;151077.03;5099412;28;20028;-69
2023/05/02 11:30:52;;;;;;;3.08;1.90;;;;;;;14.60;30.08;150954.78;5088555;28;20043;-66
2023/05/02 11:33:18;;;;;;;2.90;1.70;;;;;;;14.94;31.52;151041.00;5102108;28;20032;-70
2023/05/02 11:35:45;;;;;;;4.15;1.80;;;;;;;14.96;30.08;151046.19;5098543;28;20031;-70